events-overview

Kinetic Sprint

 

Overall

Lake Anna State Park - Spotsylvania, VA 5/12/2013 09:00AM

** Results are for the private use of participants and are the Intellectual Property of Set Up Events. Unauthorized use of these results is prohibited.

Place Bib Ag S NAME city/state DQ Rank SWIM Rank T1 Rank Bike Rank T2 Rank RUN PENALTY TIME DQ
1116MStone DysonRichmond VA 200:10:01600:01:17800:41:10200:00:33600:18:12 01:11:12 
257524MParker SpencerRichmond VA 2100:11:54500:01:16400:40:471500:00:39400:17:47 01:12:21 
351839MAndrew LipscombAlexandria VA 2400:12:012100:01:44200:40:154500:00:52200:17:43 01:12:33 
419631MGregory LindquistArlington VA 3400:12:182500:01:45600:41:029100:00:58800:18:44 01:14:45 
550327MMatthew PughChesterfield VA 4100:12:281400:01:36700:41:042300:00:441000:19:39 01:15:29 
624441FHeather WestermanLigonier PA 100:09:573600:01:51900:41:132800:00:465700:21:52 01:15:37 
74422MBobby StanleyBerryville VA 2800:12:071800:01:412700:43:47500:00:37300:17:44 01:15:55 
855833MScott YatesWashington DC 2900:12:093200:01:50100:40:0615300:01:062800:20:56 01:16:05 
920615FTaylor KnibbWashington DC 500:10:192000:01:422400:43:3810800:01:002200:20:26 01:17:03 
1047331MZachary BrittonWashington DC 1300:11:121500:01:365300:45:155300:00:53500:18:07 01:17:03 
1153436MAlan MossKing George VA 1400:11:317900:02:12500:40:5421600:01:165900:21:56 01:17:46 
1264244MSean PierceAlexandria VA 15400:14:3714200:02:29300:40:206700:00:551100:19:39 01:17:58 
1348134MSebastian De La CuevaArlington VA 4500:12:341000:01:282100:43:311600:00:401200:19:56 01:18:07 
1416431FJennifer GephartArlington VA 800:11:041900:01:411700:42:545400:00:535500:21:48 01:18:19 
1512035MPhil ReutlingerAlexandria VA 6200:13:0516000:02:333700:44:298000:00:57100:17:26 01:18:28 
1638831MBenjamin GreenNew York NY 6000:13:021600:01:391300:41:53600:00:374200:21:26 01:18:36 
1714251MDolan SullivanAlexandria VA 1800:11:4510300:02:213500:44:225100:00:531800:20:17 01:19:36 
1845718MDaniel McAllisterLeesburg VA 700:10:362700:01:464100:44:40800:00:387200:22:13 01:19:52 
1929626MJoe KrasinskasVienna VA 3600:12:193100:01:502000:43:2824400:01:202900:21:02 01:19:56 
205650MEric MackemReston VA 7700:13:189300:02:161600:42:3712400:01:033400:21:09 01:20:20 
2137638MMichael SkeeleArlington VA 600:10:336000:02:042800:43:5514600:01:0510000:22:46 01:20:20 
2257330MAndrew CallihanRichmond VA 15100:14:328300:02:121000:41:225500:00:544500:21:27 01:20:24 
2324727MJames ParkerArlington VA 5200:12:468600:02:147600:46:1210700:01:00700:18:43 01:20:53 
2433627MJohn ClossArlington VA 300:10:1011900:02:255800:45:3525900:01:214400:21:27 01:20:55 
2546439MBrandon BruckerVienna VA 23300:15:5014600:02:301400:42:178300:00:571300:20:00 01:21:32 
26540FRobin WitlinOak Hill VA 6500:13:075700:02:033100:44:1219200:01:123500:21:12 01:21:44 
2746954MAlan DixonWashington DC 12200:14:0513500:02:271100:41:4611800:01:0110100:22:46 01:22:04 
2848227MEric RobinsonArlington VA 7500:13:161700:01:406100:45:421900:00:412700:20:53 01:22:10 
2945428MSean FishWashington DC 3700:12:2326700:03:094700:44:5927600:01:232400:20:33 01:22:26 
3060046MRob PriceFairfax VA 1900:11:4710700:02:224300:44:4610600:01:009500:22:41 01:22:34 
PlaceBibAgSNAMEcity/stateDQRankSWIMRankT1RankBikeRankT2RankRUNPENALTYTIMEDQ
3142933MCharles ShepardStaunton VA 14200:14:216500:02:061900:43:2744200:01:572600:20:53 01:22:42 
3227423MThomas GallantWashington DC 12100:14:047300:02:091800:43:1422600:01:187000:22:08 01:22:51 
3333752MJeff BowersAshburn VA 18900:15:0914000:02:292200:43:3114800:01:062500:20:47 01:23:00 
3446819FKathleen DodsonSpringfield VA 400:10:141100:01:3011400:47:226800:00:5510800:23:02 01:23:00 
3515243MMatt WitlinOak Hill VA 5000:12:3919900:02:465900:45:398500:00:573200:21:05 01:23:05 
3651246MBaucum FulkCharlottesville VA 11900:14:045800:02:033400:44:223400:00:486000:21:56 01:23:11 
3736329MBrian SmithReston VA 1200:11:108500:02:136600:45:573600:00:4911400:23:08 01:23:14 
3857241MKevin GreenGaithersburg MD 18100:15:046100:02:041500:42:3213300:01:048900:22:36 01:23:17 
3962347MDarin SladeFalls Church VA 10800:13:5420500:02:482500:43:405800:00:546600:22:06 01:23:19 
4062436MElliott LaneWashington DC 7000:13:125600:02:031200:41:468100:00:5725700:25:42 01:23:38 
4136243MBenjamin MeredithLinville VA 14100:14:205300:02:014600:44:5411400:01:014100:21:26 01:23:40 
4250248MMark LevyOwings Mills MD 5800:12:5724700:03:033800:44:3717700:01:105800:21:55 01:23:40 
436938FLisa HowensteinClifton VA 2000:11:485000:02:014800:45:003700:00:4916200:24:07 01:23:43 
4410125MGreg SchleifmanArlington VA 3300:12:1711000:02:239900:46:5716300:01:083600:21:14 01:23:56 
4540533MAndrew MerrittCulpeper VA 27600:16:2824600:03:033200:44:1521000:01:15900:19:09 01:24:08 
467744MYuichiro EndoNorfolk VA 9900:13:414600:01:597800:46:173200:00:485300:21:44 01:24:28 
4742333MDavid NicholsonWashington DC 19600:15:1915100:02:314200:44:437500:00:563300:21:05 01:24:32 
4859549MChristopher VaughanWashington DC 2200:11:5416100:02:334000:44:3831200:01:2816400:24:08 01:24:40 
4943027FSara BlackWoodbridge VA 1000:11:079200:02:1610400:47:167000:00:5512300:23:15 01:24:47 
5056017MJake KendrickManassas VA 900:11:0611400:02:2315200:48:239300:00:597300:22:13 01:25:01 
5159126MBrandon HendricksonKing George VA 2500:12:034400:01:5710800:47:1819600:01:128500:22:33 01:25:01 
5265327MJason StephensBumpass VA 23600:15:533000:01:493000:44:049400:00:597600:22:21 01:25:03 
5344454MDave MillerFrederick MD 15600:14:3921600:02:525500:45:254300:00:523900:21:22 01:25:09 
5455334MAdam KitayWashington DC 8400:13:303400:01:518200:46:254900:00:539300:22:41 01:25:18 
5548441FChristina MeyerCharlottesville VA 15900:14:427500:02:103900:44:376200:00:5411000:23:04 01:25:25 
5648837MJustin PierceWoodbridge VA 19100:15:167600:02:114500:44:5338300:01:424800:21:34 01:25:34 
5712539MRobert SmolichArlington VA 20300:15:2419200:02:436800:46:0112700:01:032100:20:25 01:25:34 
5829345MMike KirschNewport News VA 7100:13:133800:01:522300:43:329500:00:5927200:26:06 01:25:41 
5911332FKatherine TobinWashington DC 1600:11:379800:02:1812500:47:367600:00:5613400:23:24 01:25:49 
6030036FKathy LettFalls Church VA 12000:14:0412500:02:265400:45:1814400:01:0510700:23:00 01:25:50 
6143840MEric RodkinChevy Chase MD 22700:15:4710600:02:227100:46:0528000:01:232000:20:17 01:25:52 
PlaceBibAgSNAMEcity/stateDQRankSWIMRankT1RankBikeRankT2RankRUNPENALTYTIMEDQ
6265034MShaun RooneyNewport News VA 10500:13:4719600:02:458600:46:4520800:01:154000:21:24 01:25:54 
6313244FDebbie FreivaldManassas VA 18200:15:0518600:02:414400:44:485000:00:538400:22:33 01:25:57 
6417460MStephen GodwinBethesda MD 9300:13:3721100:02:505100:45:1232500:01:3010300:22:52 01:26:00 
653736FNicole WeidensaulLocust Grove VA 7900:13:258700:02:148400:46:278400:00:5712700:23:17 01:26:19 
665047MJohn CaldwellRichmond VA 12600:14:074100:01:5411800:47:292500:00:456800:22:07 01:26:20 
6749432MJonathan WilliamsonManassas VA 10300:13:452800:01:4715900:48:351800:00:415200:21:41 01:26:26 
6857829MJorge RamosMexico XX 13500:14:1410400:02:2110500:47:1619300:01:124300:21:26 01:26:27 
6934925MZach BirnbaumWashington DC 10700:13:5213900:02:295000:45:0527900:01:2314400:23:48 01:26:35 
7058622MKeith MacDonaldNewport News VA 20700:15:249700:02:186700:45:5946700:02:043000:21:02 01:26:45 
7111529MJon StewartCharlottesville VA 9100:13:366700:02:0610000:46:5813000:01:0311200:23:06 01:26:48 
7256232FEmily DillonChesterfield VA 3800:12:257400:02:1012800:47:4237200:01:4010600:22:59 01:26:53 
7352033MBrett GombarBlacksburg VA 1500:11:326800:02:0816800:48:5313400:01:0412900:23:20 01:26:54 
7437226MStafford CraymerVirginia Beach VA 11500:14:012300:01:4413300:47:502000:00:429400:22:41 01:26:57 
7520935FDixie KingChesapeake VA 22400:15:449400:02:176200:45:447100:00:558100:22:28 01:27:06 
7616541FStephanie ProssCulpeper VA 2300:11:598100:02:129600:46:5510900:01:0021800:25:02 01:27:06 
7738540MTim WalkawiczNorfolk VA 2600:12:0539100:03:505600:45:2815900:01:0720800:24:50 01:27:18 
78847MDaniel AndersonRockville MD 8200:13:2843200:04:126500:45:5226200:01:218600:22:33 01:27:24 
7943531MSteven VadnaisArlington VA 34000:17:262900:01:485200:45:15400:00:358700:22:35 01:27:37 
8030439MDavid Callaway JrStafford VA 10900:13:547200:02:098500:46:2813100:01:0315900:24:05 01:27:39 
8160235MBrandon SmithRichmond VA 11600:14:027000:02:084900:45:0422100:01:1722800:25:11 01:27:39 
8212446MThom MukriWoodbridge VA 22100:15:433700:01:529500:46:552600:00:458800:22:36 01:27:48 
8316932FJulie GunzenhaeuserArlington VA 4700:12:369100:02:167000:46:0234300:01:3424600:25:30 01:27:55 
847045MDave KayeaAnnapolis MD 14000:14:1917000:02:357500:46:1117800:01:1014700:23:51 01:28:05 
8530936MAndrew JonesArlington VA 36100:17:5113200:02:272600:43:4017200:01:0912100:23:15 01:28:21 
868151MGreg TuckMechanicsville VA 24900:16:0811600:02:2412700:47:427300:00:563800:21:17 01:28:24 
8713937MChad SearleArlington VA 22300:15:449500:02:178800:46:477700:00:569600:22:44 01:28:26 
8815043FPeggy NeidigChesapeake VA 12700:14:082600:01:459400:46:5411000:01:0020000:24:40 01:28:26 
8951932MPatrick BurnsArlington VA 10200:13:4412400:02:2611100:47:2048100:02:1010200:22:52 01:28:31 
9017325FAshley KearcherCharleroi PA 15500:14:3712100:02:2515100:48:239700:00:597900:22:26 01:28:49 
9156426MThomas ImronFairfax VA 4200:12:305900:02:0417300:49:0112800:01:0317600:24:20 01:28:55 
9222525MKurt GibelCentreville VA 10100:13:424000:01:543600:44:2411700:01:0136300:27:58 01:28:57 
PlaceBibAgSNAMEcity/stateDQRankSWIMRankT1RankBikeRankT2RankRUNPENALTYTIMEDQ
9349333MDerek KasseAshburn VA 11400:14:0013800:02:2814600:48:1614000:01:0511800:23:12 01:28:59 
9425940MJohn StannFpo XX 21600:15:4021300:02:5211500:47:2315000:01:066500:22:03 01:29:02 
9547541MChad RicknerChesapeake VA 39100:18:295400:02:025700:45:315700:00:547500:22:18 01:29:11 
9610334MDavid FosterMcLean VA 6800:13:1117100:02:3615000:48:2116900:01:0915800:24:04 01:29:19 
9748543MMatt BarbourWinchester VA 8100:13:2726800:03:0912300:47:3413700:01:0416500:24:08 01:29:20 
9865247MDan ScheblerChantilly VA 16400:14:5016600:02:356400:45:5132100:01:3019800:24:38 01:29:22 
9942830FNicole ShepardStaunton VA 29700:16:373300:01:507700:46:1630900:01:2812500:23:16 01:29:24 
10044719MAustin KendallOak Hill VA 20900:15:2525500:03:0519700:49:3113900:01:042300:20:32 01:29:35 
10164827MDavid ColmanArlington VA 35100:17:3641700:04:039800:46:569600:00:591500:20:03 01:29:35 
10236957MPete CraymerHickory NC 19700:15:205100:02:0113700:48:0112100:01:0212600:23:17 01:29:38 
10340638MCharles ShedrickArlington VA 20200:15:2321800:02:539000:46:4720000:01:1313700:23:30 01:29:44 
10414937FKanchani AlgamaWashington DC 11800:14:046600:02:0620700:49:4721700:01:169100:22:38 01:29:48 
10539436MJeff HansenRuckersville VA 7600:13:1624100:03:0115300:48:263900:00:5117200:24:18 01:29:49 
10629227FRebecca CharltonArlington VA 6100:13:0216900:02:3516600:48:5027100:01:2215700:24:02 01:29:49 
10753052MTim SchneiderLouisa VA 14600:14:276300:02:059700:46:5524200:01:1922100:25:06 01:29:50 
10835450FKatherine McKnightFairfax VA 19000:15:138200:02:1213100:47:4820500:01:1413600:23:27 01:29:53 
10912348MDavid ZemoCulpeper VA 15000:14:3115600:02:326900:46:0212200:01:0226300:25:51 01:29:55 
1104532FElisha CookChesapeake VA 16200:14:4726100:03:0617100:48:5622200:01:175600:21:51 01:29:56 
1119150MDaniel BarronRuther Glen VA 29900:16:3710200:02:206300:45:4611500:01:0116900:24:15 01:29:57 
11252928FChristina NuttingWashington DC 6700:13:1011500:02:2315400:48:269800:00:5922500:25:09 01:30:05 
11340246MBen HaleSterling VA 16100:14:4537500:03:453300:44:1540100:01:4725100:25:39 01:30:10 
1148520MJosh MeltzerRockville MD 14900:14:3030100:03:2210100:47:0232000:01:2914600:23:51 01:30:12 
11517827MJared KuhmerkerRichmond, Va VA 7300:13:1522500:02:5617200:48:5919700:01:1315000:23:52 01:30:13 
11626032MRoger CusterOakton VA 13700:14:1618000:02:4010300:47:114700:00:5323800:25:20 01:30:17 
11720036MArnel AlverioHaymarket VA 10600:13:5117900:02:4013600:48:0025300:01:2018500:24:28 01:30:18 
11851550MStephen O'DonnellWashington DC 24200:15:5817500:02:3916000:48:365900:00:547400:22:13 01:30:19 
11911632FRebecca ReutlingerAlexandria VA 9400:13:3722900:02:5820200:49:415200:00:5311600:23:11 01:30:19 
12043729FLauren LipseyArlington VA 7400:13:1510800:02:2221200:49:596600:00:5515100:23:52 01:30:22 
12163944MCarlos RodriguezWheaton MD 16300:14:504300:01:5717800:49:0921100:01:1512200:23:15 01:30:25 
1223133MJohn MatlockArlington VA 19200:15:1813700:02:2810200:47:0529700:01:2616800:24:09 01:30:25 
12317228MJohn MileyArlington VA 22900:15:4941400:04:0216500:48:502200:00:433100:21:04 01:30:26 
PlaceBibAgSNAMEcity/stateDQRankSWIMRankT1RankBikeRankT2RankRUNPENALTYTIMEDQ
12438958MDaniel TrimbachNew York NY 7200:13:1422400:02:568100:46:2336900:01:3928800:26:23 01:30:34 
12550741MChristopher BrownBroad Run VA 3200:12:1423100:02:5911300:47:2215800:01:0731000:27:00 01:30:39 
12655538MAaron LaroseAlexandria VA 30900:16:4516400:02:348700:46:4517400:01:1013900:23:32 01:30:43 
12765432MJustin MarshallArlington VA 32100:16:5715300:02:3122900:50:188600:00:581400:20:02 01:30:45 
12858522MJames StraneIrwin PA 25600:16:144800:02:0017700:49:086100:00:548300:22:31 01:30:46 
12950159MDennis BarrRidge MD 28100:16:294700:01:597200:46:058900:00:5823600:25:18 01:30:48 
13055234MJuan Camilo EcheverriWashington DC 36300:17:5924200:03:017300:46:0528700:01:248000:22:26 01:30:53 
1316631MBrian CookArlington VA 11700:14:0233200:03:3323200:50:2229100:01:244900:21:34 01:30:54 
13228849MMichael OconnorArlington VA 13300:14:1425000:03:0416100:48:4120300:01:1414900:23:52 01:31:02 
13370517MJonathan HawkinsSpotsylvania VA 28400:16:30800:01:259200:46:50300:00:3426200:25:49 01:31:06 
13414829MRyan HoffmanReston VA 9600:13:4027900:03:1519800:49:3128400:01:2313100:23:21 01:31:09 
13518744MThomas WilliamsWashington DC 1100:11:0817400:02:3923500:50:2521300:01:1525800:25:43 01:31:10 
13610950MJohn ThomasNorfolk VA 30100:16:3822700:02:569100:46:4924800:01:2013800:23:30 01:31:11 
13712133FAudrey PerlowArlington VA 27700:16:2914700:02:3017600:49:077800:00:577100:22:12 01:31:12 
13841446MMark ThalmanBethesda MD 15200:14:3235100:03:389300:46:5230800:01:2721100:24:51 01:31:19 
13951055MJames JeremiahFairfax VA 9000:13:366200:02:0427100:52:0023300:01:187800:22:24 01:31:20 
14020414MJack KnibbWashington DC 4600:12:3615000:02:3129300:52:4816500:01:097700:22:21 01:31:22 
14143342MMike DesmondReston VA 22200:15:4423500:03:0019300:49:2428800:01:246100:21:58 01:31:26 
14223841MDaniel CuvielloFairfax VA 5300:12:4821000:02:4917400:49:0234900:01:3523500:25:18 01:31:31 
1439845MCharles BarnesVienna VA 37300:18:1028300:03:1511600:47:2516800:01:095000:21:36 01:31:33 
1443246FLeanne McAllisterLeesburg VA 13900:14:1912300:02:2617900:49:1014100:01:0519500:24:36 01:31:34 
14544646MCharles KendallOak Hill VA 18300:15:0534300:03:368300:46:2625100:01:2023300:25:15 01:31:40 
14641631MAlec RubensteinKensington MD 24700:16:0413100:02:2716300:48:4425600:01:2111700:23:12 01:31:46 
14720131MAllen WuFairfax VA 13200:14:1138900:03:4913200:47:5036800:01:3820600:24:48 01:32:14 
14834549MMark EsperFairfax Station VA 18700:15:0726000:03:0615800:48:3353000:02:489700:22:45 01:32:16 
14960344FHolly NorthupNewport News VA 4000:12:2710900:02:2222100:50:0916000:01:0827600:26:12 01:32:16 
15024128MMichael OwensWashington DC 8800:13:3512700:02:2628800:52:302700:00:4511300:23:07 01:32:21 
15150541MMatthew SchwabelCary NC 36700:18:0430000:03:2213000:47:4715400:01:076700:22:07 01:32:24 
15212963MBrad MetcalfRichmond VA 21900:15:428900:02:1515500:48:2737900:01:4118300:24:26 01:32:27 
15324826MChris BoscoVienna VA 1700:11:455500:02:0231500:53:2017100:01:0917800:24:21 01:32:36 
15446034FMolly ClemonsFincastle VA 22800:15:4813300:02:2722800:50:176900:00:5512000:23:15 01:32:40 
PlaceBibAgSNAMEcity/stateDQRankSWIMRankT1RankBikeRankT2RankRUNPENALTYTIMEDQ
15545943MPaul MartinezSpringfield VA 36900:18:078800:02:1413400:47:5433700:01:3310900:23:03 01:32:49 
15625630MGreg MowlesAlexandria VA 8300:13:3023700:03:0023800:50:278800:00:5821600:25:01 01:32:55 
157353FJulie CaprioParkville MD 13600:14:1432400:03:3114100:48:0413500:01:0427400:26:07 01:32:58 
15864054MJoe DemarestWashington Dc DC 17600:15:0240500:04:0010900:47:1826800:01:2224000:25:23 01:33:03 
15937443MJason CohenFredericksburg VA 26400:16:199600:02:1817000:48:5631000:01:2816000:24:06 01:33:05 
16060542FSarah RodriguezWheaton MD 17500:15:014200:01:5724100:50:368700:00:5819700:24:37 01:33:08 
16131156MBen FoyMurrysville PA 30000:16:3820900:02:4911900:47:3119900:01:1321700:25:02 01:33:10 
16263647MTodd SmithLorton VA 6600:13:1022600:02:5623900:50:3229900:01:2622400:25:08 01:33:10 
16355130MWilliam KirchnerFairfax VA 12900:14:0929700:03:2114700:48:1631800:01:2926800:26:00 01:33:12 
16432433MChristopher CatalanoArlington VA 21000:15:2715200:02:3110700:47:1749900:02:2025400:25:41 01:33:15 
16522236MShane McElroyArlington VA 5600:12:5431200:03:2619000:49:1927400:01:2327800:26:15 01:33:15 
16641355FConnie MaxwellNewport News VA 14500:14:2633700:03:346000:45:3923400:01:1838200:28:27 01:33:24 
16750448MWil RigginsAlexandria VA 43200:19:213900:01:5318500:49:1334000:01:344600:21:27 01:33:26 
16857633MKyle CavanaughWashington DC 2700:12:0511700:02:2430200:53:0339300:01:4517100:24:17 01:33:33 
16937831FRena GreifingerWashington DC 25300:16:1220800:02:4924600:50:4419800:01:139000:22:38 01:33:34 
17029428FJamey ReddingWashington DC 24600:16:047100:02:0923000:50:1922300:01:1714500:23:48 01:33:34 
1717428MJohn KofmehlWashington DC 26900:16:2439400:03:518900:46:4740200:01:4820500:24:48 01:33:36 
17241735MJohn WalshWoodbridge VA 35200:17:3620000:02:4612000:47:3235800:01:3616700:24:09 01:33:38 
17368934MAbhaya MenonArlington VA 42500:19:1732900:03:3319900:49:3212600:01:031700:20:16 01:33:39 
17471045MEric EldridgeCentreville VA 28900:16:312200:01:4418300:49:1329600:01:2620900:24:50 01:33:42 
17522930MBrad SmithWilliamsburg VA 12800:14:096900:02:0827000:52:004100:00:5219600:24:36 01:33:42 
17622350MFred WeberFrederick MD 26000:16:1712200:02:2515700:48:2834500:01:3422300:25:08 01:33:51 
17749935MAldo AguirreWilliamsburg VA 36600:18:047700:02:1121300:49:5918600:01:118200:22:28 01:33:52 
17858821FAlexandria GagnonLexington VA 31700:16:5412000:02:2522500:50:1519000:01:1211900:23:13 01:33:56 
17965535MMike NockunasArlington VA 20000:15:2234800:03:3711200:47:2123200:01:1828600:26:22 01:33:57 
18022660MBarry DiciccoOakton VA 21200:15:355200:02:0112900:47:4518400:01:1134000:27:31 01:34:00 
18141127FKylie GoodellTakoma Park MD 12400:14:0620700:02:4926200:51:4538800:01:4414000:23:38 01:34:01 
18237326FAlexandra HughesWashington DC 7800:13:1836900:03:4422700:50:1730400:01:2724100:25:24 01:34:08 
18341041FPauline OwenKing George VA 24500:16:0315700:02:3219200:49:2412500:01:0322900:25:11 01:34:11 
18443658FTobin GattoAlexandria VA 11100:13:5719000:02:4325000:50:5644700:01:5920100:24:42 01:34:14 
1851133MTimmothy McShaneColumbia MD 23400:15:5123600:03:0014300:48:0623800:01:1927100:26:06 01:34:19 
PlaceBibAgSNAMEcity/stateDQRankSWIMRankT1RankBikeRankT2RankRUNPENALTYTIMEDQ
18654451MIra SchulmanCharlottesville VA 32700:17:0513600:02:2812400:47:344400:00:5228900:26:26 01:34:23 
18763746MDavid McCreadyArlington VA 16500:14:5030700:03:2425700:51:1511300:01:0115200:23:55 01:34:25 
1881842MDavid KarasikRockville MD 31100:16:4721500:02:5214400:48:1122000:01:1723700:25:19 01:34:25 
18936436MCarl FrankenfieldPortsmouth VA 13800:14:1625900:03:0613800:48:0135900:01:3733700:27:30 01:34:27 
19027125FMeghan AbramczykArlington VA 3500:12:1925300:03:0426300:51:4612900:01:0328100:26:17 01:34:28 
19116136MJuan TorresWoodbridge VA 9200:13:3723000:02:5824300:50:4126400:01:2126500:25:54 01:34:29 
19262830MCesar VenceWashington DC 25900:16:1624400:03:0220600:49:4615100:01:0618200:24:24 01:34:31 
19321564MJohn TanseyWilliamsburg VA 32500:16:5813000:02:277400:46:0528500:01:2334700:27:41 01:34:33 
19431645MTimothy LoomisNewport News VA 35900:17:4441300:04:027900:46:1946500:02:0419400:24:35 01:34:42 
19513640FHeather GrossmanGainesville VA 21100:15:2823900:03:0120400:49:4330200:01:2723000:25:13 01:34:49 
19657146FSusan BrewtonWashington DC 20800:15:2530400:03:2312100:47:3230100:01:2722000:25:0400:02:0001:34:49 
19753952MLeighton QuickHamilton VA 17200:14:5928200:03:1522400:50:1450800:02:2615400:23:57 01:34:50 
19859644FValerie KramerPenn Laird VA 24100:15:5727100:03:1121800:50:0712300:01:0219300:24:34 01:34:50 
19942637MChristopher OlsenArlington VA 31900:16:5440900:04:0121100:49:5922400:01:179200:22:41 01:34:50 
20052555MMark RyanManassas VA 17000:14:5744700:04:1914500:48:136500:00:5429300:26:30 01:34:52 
20158953FCecelia KirkmanStafford VA 12500:14:0718900:02:4214900:48:2035500:01:3637200:28:13 01:34:55 
20254132MJoe AltomareHampton VA 36400:18:0116300:02:342900:44:0110000:01:0041700:29:22 01:34:56 
20326626MBilly CulletonArlington VA 20500:15:2417700:02:4013900:48:0330700:01:2733600:27:29 01:35:01 
20431545MJames RosenRichmond VA 9700:13:4132800:03:3231200:53:1035000:01:3511500:23:11 01:35:07 
2057255MScott DawleyCulpeper VA 25800:16:1629800:03:2118600:49:139200:00:5824400:25:29 01:35:15 
2066150FJeanmarie BantzAfton VA 38300:18:2018800:02:4216200:48:4310400:01:0019200:24:34 01:35:16 
20745233MToby BirdsellLorton VA 19400:15:1938600:03:4922000:50:0947700:02:0915300:23:55 01:35:18 
20819425FCorinn PopeArlington VA 16900:14:5616200:02:3418900:49:1824700:01:2032500:27:15 01:35:21 
20946143MSean WelbornLorton VA 5500:12:5129300:03:1933900:54:0526700:01:2214300:23:46 01:35:21 
21039924FAmy MiaoNorth Potomac MD 15300:14:3317200:02:3728100:52:2030600:01:2718700:24:30 01:35:26 
21124938FErin ConnerWashington DC 39300:18:3526900:03:1016900:48:5638200:01:4212400:23:16 01:35:37 
21222150MDennis MyersChesapeake VA 23800:15:5434100:03:3518800:49:1736200:01:3723400:25:17 01:35:38 
2139333FKristy GreenEllicott City MD 32600:17:0414800:02:3121900:50:0817000:01:0921200:24:52 01:35:42 
21432759MCharlie WatkinsNorfolk VA 4300:12:3029900:03:2125200:51:0339600:01:4531800:27:10 01:35:47 
21523553MDonald KnutsonLeesburg VA 6900:13:1144000:04:1720800:49:5038100:01:4230200:26:50 01:35:48 
21620330MLing ChenCentreville VA 31600:16:5119800:02:4511000:47:1946300:02:0330500:26:55 01:35:51 
PlaceBibAgSNAMEcity/stateDQRankSWIMRankT1RankBikeRankT2RankRUNPENALTYTIMEDQ
21762927MChris MandellFredericksburg VA 35800:17:4138400:03:4827600:52:021100:00:395400:21:46 01:35:54 
2189742FMissy ThaxtonOakton VA 38600:18:2320400:02:4813500:47:5631600:01:2925500:25:41 01:36:15 
21967937MRedha MorsliWashington DC 33400:17:1718500:02:4126100:51:4319400:01:1213500:23:25 01:36:17 
22059832MRobert RegerSpringfield VA 32400:16:5815500:02:3212600:47:4120900:01:1536400:27:59 01:36:22 
22112234MJustin JacobsThe Plains VA 23000:15:4931600:03:2720500:49:4440700:01:4924900:25:37 01:36:23 
2221354MAl NavidiRockville MD 48000:20:4323800:03:0010600:47:1718100:01:1017900:24:22 01:36:30 
22344846FBecky KendallOak Hill VA 37700:18:1222800:02:5819400:49:265600:00:5421900:25:04 01:36:33 
22434843MAndrew EstAshburn VA 41400:18:5821900:02:5323100:50:2014500:01:0513000:23:20 01:36:36 
22556626MJeffrey McIntyreOakton VA 23700:15:538400:02:1328200:52:2110200:01:0023200:25:14 01:36:38 
22631940MScott SmithVienna VA 28200:16:2929400:03:1931100:53:1038500:01:436200:22:00 01:36:40 
2276563MDavid ConoverGreat Falls VA 21400:15:389000:02:1523400:50:2425400:01:2031700:27:08 01:36:44 
22853629FChristina ClarkWashington DC 11000:13:5619700:02:4536000:54:5718500:01:1115500:23:57 01:36:44 
22953227FJennifer WeaverChantilly VA 8500:13:3249900:04:4733700:54:024200:00:5214100:23:42 01:36:53 
23031338FGina ShandChesterfield VA 14800:14:298000:02:1219500:49:2727300:01:2342000:29:28 01:36:56 
23118236MWilliam OverAshburn VA 29100:16:3121200:02:5124000:50:3627000:01:2225300:25:41 01:36:59 
2321552MKenneth PearceMechanicsville VA 18500:15:0618300:02:4123300:50:2438900:01:4431600:27:07 01:37:00 
23336552MAlan ArrudaWilliamsburg VA 17700:15:0239900:03:5811700:47:2840600:01:4840500:28:54 01:37:08 
2349636FGretchen CullenbergArlington VA 20400:15:2418400:02:4120300:49:4343000:01:5433900:27:30 01:37:09 
23567036MRichard SmithAlexandria VA 32000:16:5443500:04:1421700:50:0733900:01:3418000:24:22 01:37:10 
23641532MBen KostrzewaArlington VA 29000:16:3133500:03:33    5100:21:40 01:37:21 
2379035FMargaret GrayReston VA 25400:16:136400:02:0528900:52:3325500:01:2023100:25:14 01:37:23 
23840833MKang HuAlexandria VA 40500:18:5122000:02:5314000:48:0427200:01:2328700:26:23 01:37:32 
23942448FAlison SimonWashington DC 30700:16:4219500:02:4521000:49:563800:00:5032800:27:21 01:37:32 
24020525MKyle SuibAlexandria VA 37800:18:1228600:03:1625300:51:092100:00:4317700:24:20 01:37:39 
24136129FAmy SmithReston VA 3000:12:1111200:02:2335300:54:3920100:01:1433000:27:22 01:37:46 
24260632MSteven CunninghamArlington VA 37100:18:0830300:03:2227400:52:0125200:01:2011100:23:04 01:37:53 
2438637MBrad BuzbyNewburg MD 35400:17:3734000:03:3512200:47:3324000:01:1936800:28:05 01:38:06 
24427342FJohanna TaddikenArlington VA 23500:15:5227200:03:1123700:50:2724900:01:2033100:27:24 01:38:11 
24536733MJp HylandWashington DC 22500:15:4452500:05:0822300:50:1350400:02:2520700:24:49 01:38:17 
24611731MAlun OliverLeonardtown MD 35600:17:3841800:04:0431800:53:2520600:01:146900:22:07 01:38:26 
24710533MNic WardClarksburg MD 26600:16:2027500:03:1334500:54:2216700:01:0913200:23:24 01:38:26 
PlaceBibAgSNAMEcity/stateDQRankSWIMRankT1RankBikeRankT2RankRUNPENALTYTIMEDQ
24837024FRebecca CraftRichmond VA 38500:18:224500:01:5729500:52:51700:00:3820300:24:43 01:38:29 
24915431MJohn LiuReston VA 38700:18:2512800:02:2714800:48:1844900:01:5933300:27:26 01:38:33 
25045536FKristin WedemeyerReston VA 8000:13:2711800:02:2533300:53:5511900:01:0135600:27:50 01:38:36 
25154645MDavid HurleyVienna VA 20600:15:2437600:03:4526500:51:4726000:01:2128500:26:21 01:38:36 
25268524MCaleb WilbanksWoodbridge VA 36200:17:5118100:02:4028600:52:2728100:01:2317000:24:17 01:38:37 
25356154MCraig PetersonGambrills MD 15800:14:4219100:02:4320100:49:3729800:01:2643800:30:16 01:38:42 
2544736MJason StroupAlexandria VA 36000:17:4612600:02:2624700:50:4644100:01:5726400:25:51 01:38:43 
25559954FEllen GuintherRichmond VA 12300:14:0625100:03:0435500:54:4036100:01:3723900:25:22 01:38:47 
25663227MChad BartlettGaithersburg MD 18800:15:0846900:04:3020000:49:3632900:01:3237100:28:08 01:38:52 
25728628MJohn BarnhardtWashington DC 46300:20:0819400:02:4421600:50:0542300:01:5116100:24:06 01:38:53 
25839848MAaron GoldFalls Church VA 4800:12:3645900:04:2532700:53:3541700:01:5029200:26:30 01:38:54 
2596232FNikki UsherCabin John MD 25100:16:1137100:03:4432100:53:2721900:01:1617400:24:19 01:38:55 
26022037MJason MorganChesterfield VA 27000:16:2445600:04:2429000:52:3332300:01:3016300:24:07 01:38:57 
26167441MDaniel ZweersAlexandria VA 16600:14:5344900:04:2025100:50:5956000:03:1925000:25:38 01:39:07 
26236630FSierra WinserKing George VA 6400:13:0614500:02:3028400:52:2630000:01:2742400:29:42 01:39:09 
26317736FKathy ColemanSterling VA 32800:17:0615800:02:3225400:51:1028200:01:2331400:27:05 01:39:14 
26468726MStephen DortonKing George VA 46000:20:0326600:03:0925800:51:2244500:01:579800:22:45 01:39:15 
26533918MMike BrockmeyerHampstead MD 26800:16:2133100:03:3341200:56:5718000:01:103700:21:17 01:39:16 
26657435FCarolyn BasistaWashington DC 19900:15:2131100:03:2627700:52:0335400:01:3530600:26:55 01:39:18 
26735532MEarl BiglowWashington DC 31800:16:5441900:04:0433400:53:5834100:01:3410400:22:52 01:39:20 
26812643FTricia PowellRichmond VA 28700:16:3032600:03:3218700:49:1420700:01:1440700:28:56 01:39:25 
26925747MNeal MetzendorfOakton VA 34500:17:3145100:04:2217500:49:0527700:01:2331900:27:10 01:39:29 
2701444FEmily ArmstrongRockville MD 43800:19:2722300:02:5618400:49:1311600:01:0130700:26:55 01:39:30 
27135636FCarrie GoodgeWashington DC 11300:14:0031400:03:2731600:53:2237500:01:4031500:27:06 01:39:32 
27247960MRod DevarAlexandria VA 49300:21:1143900:04:1622200:50:101000:00:3913300:23:24 01:39:38 
27314046FMichele VaughanFront Royal VA 29800:16:3728400:03:1528000:52:163100:00:4830000:26:45 01:39:38 
27418129FJaime PooleAlexandria VA 8900:13:3630800:03:2435800:54:5138600:01:4427300:26:06 01:39:40 
27569820FKelsey BarklundCulpeper VA 10400:13:4611300:02:2330700:53:087200:00:5542100:29:32 01:39:42 
27652649MKevin MahoneyWaldorf MD 41100:18:5635800:03:4020900:49:5536400:01:3725200:25:39 01:39:47 
27738732MPeter LubranoWilliamsburg VA 17800:15:0333000:03:3334300:54:1724100:01:1925900:25:46 01:39:56 
27850642FYoko TakeuchiAlexandria VA 24000:15:5618700:02:4231400:53:1835300:01:3529100:26:29 01:39:58 
PlaceBibAgSNAMEcity/stateDQRankSWIMRankT1RankBikeRankT2RankRUNPENALTYTIMEDQ
279637MPatrick WebbManassas VA 14400:14:2527600:03:1334600:54:252900:00:4632100:27:11 01:39:59 
28017626MMichael SnowdenStafford VA 49700:21:2125600:03:0518200:49:1232400:01:3021400:24:58 01:40:03 
28118545MKarsten SchwarzBassenheim, Germany XX 31300:16:5116700:02:3528300:52:2110300:01:0032900:27:22 01:40:06 
28262230FKealan SloanWashington DC 19300:15:1819300:02:4426000:51:3142200:01:5139800:28:46 01:40:08 
28340034FAmanda MaxwellWashington DC 41500:18:5910100:02:2033600:53:5845300:02:0010500:22:56 01:40:11 
28425533FJacky BowerStafford VA 4900:12:3937200:03:4436500:55:0523700:01:1933400:27:27 01:40:12 
28545646MEdward BurgCulpeper VA 17400:15:0137800:03:4614200:48:0442400:01:5247600:31:39 01:40:20 
28635837MSean ObrienArlington VA 34400:17:2936300:03:4230300:53:0422900:01:1821300:24:56 01:40:26 
28766437FRebecca JonesFairfax VA 41300:18:577800:02:1124500:50:446000:00:5434900:27:43 01:40:28 
28819546MOliver PottsArlington VA 44400:19:3832200:03:3027200:52:0013200:01:0417500:24:19 01:40:29 
28929843MPhilip MannWashington DC 44100:19:3418200:02:4023600:50:2619500:01:1229900:26:43 01:40:34 
29052129MMichael McCarrollGaithersburg MD 30300:16:4056900:06:3931300:53:1547500:02:076300:22:00 01:40:40 
29132918MBrendan CarrEllicott City MD 13000:14:1048000:04:3549801:00:4810100:01:001900:20:17 01:40:47 
29234228MGreg BellVirginia Beach VA 39800:18:4110500:02:2224200:50:3720400:01:1435900:27:55 01:40:47 
29357045MPaul NovakApex NC 30600:16:4235400:03:4015600:48:2737400:01:4044100:30:22 01:40:48 
2947156FJulie DawleyCulpeper VA 14300:14:2430900:03:2532200:53:281200:00:3940600:28:55 01:40:50 
29561946MTim RohrbaughHaywood VA 38100:18:1614400:02:3019100:49:2136600:01:3841400:29:10 01:40:52 
29646232FKristen FagleyWashington DC 3900:12:2633300:03:3340500:56:3349800:02:2028000:26:17 01:41:07 
29715828MDaniel DavisArlington VA 37200:18:0928500:03:1530500:53:0411100:01:0025600:25:42 01:41:09 
29818028FLauren KuhmerkerArlington VA 4400:12:3425800:03:0645600:59:0414900:01:0624200:25:24 01:41:11 
29966129FErin MooreLynchburg VA 8600:13:3314900:02:3139300:56:011400:00:3939000:28:34 01:41:16 
30035032MHugh ConwayChesapeake VA 18600:15:0631900:03:2842300:57:2716600:01:0916600:24:09 01:41:16 
30152349MMatthew BaraziaVienna VA 50900:22:1132700:03:3218100:49:1142000:01:5120400:24:44 01:41:27 
30240726FKjersti SmedleyWoodbridge VA 10000:13:4216500:02:3438100:55:308200:00:5739900:28:46 01:41:27 
30325072MJames ChapmanLovettsville VA 32900:17:0732000:03:2824900:50:5551200:02:3133800:27:30 01:41:29 
30463349MKylor WhitakerHaymarket VA 46600:20:1225700:03:0518000:49:1125000:01:2034800:27:43 01:41:30 
30542555FMarjorie AuerAlexandria VA 8700:13:3414300:02:3022600:50:1622500:01:1751600:33:58 01:41:32 
30648925MDan WurtzelRockville MD 22000:15:4346200:04:2532900:53:4237800:01:4127500:26:07 01:41:36 
30744529MMike EnricoWhite Plains MD 38800:18:2516800:02:3542800:57:3423500:01:196400:22:03 01:41:53 
3085826FLisa EnglandArlington VA 33800:17:2240700:04:0029900:53:0128600:01:2328300:26:18 01:42:03 
30929755MDouglas WattGaithersburg MD 24300:16:0148400:04:3932300:53:2948000:02:1026100:25:49 01:42:06 
PlaceBibAgSNAMEcity/stateDQRankSWIMRankT1RankBikeRankT2RankRUNPENALTYTIMEDQ
31058431FKelly SmithWashington DC 33200:17:1126500:03:0827500:52:0133100:01:3237400:28:16 01:42:07 
31119745FLaura JacksonArlington VA 33900:17:2436200:03:4139400:56:0343900:01:5612800:23:19 01:42:22 
3125231FSamantha BatkoSpringfield VA 5900:13:0115400:02:3244100:58:1611200:01:0135000:27:44 01:42:31 
31336040MSean HuberKing George VA 13100:14:1051000:04:5940700:56:3748800:02:1419000:24:33 01:42:32 
31448339FAllison DavisWashington DC 14700:14:2837000:03:4438900:55:4626500:01:2132700:27:18 01:42:36 
31563131MWilliam BensonFredericksburg VA 16700:14:5343100:04:1029700:52:5546000:02:0240900:28:59 01:42:58 
3165543FLisa MackemReston VA 47800:20:4028800:03:1621500:50:0434600:01:3434300:27:35 01:43:07 
3172550MGlenn ByrdWoodbine MD 28600:16:3050100:04:4826600:51:4934700:01:3538500:28:28 01:43:08 
31843245FBecky SmithLaurel MD 27300:16:2724000:03:0129800:53:0127800:01:2341800:29:23 01:43:12 
31953831FRebeccah WatsonWashington DC 26300:16:1840800:04:0128700:52:2857000:03:3630300:26:52 01:43:12 
32027028FColleen CassidyAlexandria VA 21500:15:3938300:03:4737600:55:2539400:01:4529700:26:40 01:43:13 
32159440FSandy EliaKing George VA 26200:16:1717600:02:3936800:55:1216400:01:0836700:28:01 01:43:15 
32241229MJason KingTakoma Park MD 41800:19:0852400:05:0826700:51:5255800:03:1715600:24:00 01:43:22 
32353343MRaymond CruzAlexandria VA 50500:21:4538700:03:4916400:48:4946200:02:0330900:26:59 01:43:23 
32441841FJennifer MallardMcLean VA 3100:12:1112900:02:2750301:01:2038000:01:4126900:26:00 01:43:37 
32547132FBeth WareKensington MD 35300:17:3626200:03:0628500:52:2740000:01:4741000:28:59 01:43:54 
32613339FMarni MillerFairfax VA 28500:16:3023300:02:5936200:54:599000:00:5838800:28:31 01:43:56 
3274137FMaureen DunniganSterling VA 44500:19:41      22200:25:06 01:44:01 
32842137MIvan IversonHaymarket VA 29200:16:3135600:03:4035600:54:4217900:01:1036900:28:05 01:44:07 
32910734FMelanie ZiarkoAlexandria VA 20100:15:2331300:03:2648201:00:0825800:01:2114800:23:51 01:44:07 
33038626FMarie RandolphFairfax VA 39400:18:3635300:03:3929400:52:5048300:02:1131300:27:05 01:44:19 
33156323MAndrew FriskArlington VA 25000:16:0934900:03:3745900:59:143000:00:4719900:24:39 01:44:25 
33215934MAndrew NguyenArlington VA 34200:17:274900:02:0132000:53:274000:00:5145100:30:41 01:44:25 
33331869MDavid GearinArlington VA 40400:18:5040400:04:0016700:48:5052500:02:4143500:30:07 01:44:28 
33449651MCharlie PennFredericksburg VA 43300:19:2344500:04:1935700:54:4635700:01:3618400:24:26 01:44:28 
33563843MMichael WeberVirginia Beach VA 18000:15:0339200:03:5035900:54:5246900:02:0539200:28:40 01:44:29 
33649232MKevin DillonChesapeake VA 49100:21:1050700:04:5624400:50:4151900:02:3722600:25:09 01:44:31 
33758722MTynan KavanaughAliso Viejo CA 44300:19:3624900:03:0444600:58:291700:00:409900:22:45 01:44:33 
33816839MMike ZaettaArlington VA 21300:15:3824800:03:0327300:52:0152000:02:3846800:31:17 01:44:34 
33947025FMaria MuscaraArlington VA 21800:15:4136700:03:4345300:58:5439900:01:4618900:24:33 01:44:35 
34040445MBert ForemanGlen Allen VA 17100:14:5824300:03:0134100:54:0736700:01:3845800:30:54 01:44:36 
PlaceBibAgSNAMEcity/stateDQRankSWIMRankT1RankBikeRankT2RankRUNPENALTYTIMEDQ
34110435FMeghan ManionArlington VA 36800:18:0633400:03:3326400:51:4632800:01:3242600:29:45 01:44:41 
34221135FEily HayesChevy Chase MD 33700:17:1933600:03:3437200:55:1929400:01:2632200:27:11 01:44:47 
34369043MDavid LeeFairfax VA 47100:20:3042500:04:0532400:53:3046100:02:0220200:24:42 01:44:48 
34411456MDoug RiceClifton VA 21700:15:4146300:04:2635100:54:3341500:01:5038900:28:31 01:44:58 
34517555MDavid CooperAshburn VA 45300:19:5427000:03:1033500:53:5819100:01:1230400:26:53 01:45:05 
34647846MKevin SieversWoodbridge VA 30400:16:4040100:03:5839500:56:0555900:03:1822700:25:10 01:45:10 
34768333MBenjamin DalleyWashington DC 23200:15:5043700:04:1636900:55:1452300:02:3932600:27:17 01:45:14 
3482047FMichele PotterGermantown MD 28800:16:3042400:04:0534400:54:1838400:01:4339500:28:43 01:45:18 
34961347FNancy MorrisLexington Park MD 16800:14:5420100:02:4639800:56:1444000:01:5642300:29:36 01:45:25 
35052723FAlysha LanglowToano VA 22600:15:4543400:04:1342500:57:2926900:01:2229600:26:37 01:45:25 
35152813MBrandon BaumgartnerAlexandria VA 26500:16:1930600:03:2343900:58:1534200:01:3426600:25:56 01:45:25 
35234030FJanice KwaWashington DC 30500:16:4130200:03:2227900:52:1431300:01:2847800:31:46 01:45:29 
3533838FStephanie MitchellArlington VA 45000:19:5022200:02:5430800:53:0845500:02:0035400:27:48 01:45:39 
35413439MMichael BakerGreencastle PA 39900:18:4242900:04:0929600:52:5135100:01:3539700:28:45 01:46:00 
35530748MMatt HasslerKing George VA 49800:21:2448600:04:3921400:50:0151000:02:2934100:27:34 01:46:05 
35661134MGuido AsbunBurke VA 52800:23:2517800:02:4030600:53:0526300:01:2126000:25:46 01:46:15 
3572148FShannon BairdFalls Church VA 45600:19:5932300:03:3119600:49:3054300:03:0244200:30:22 01:46:22 
35862130FRachael BoschWashington DC 39000:18:2815900:02:3343800:58:107400:00:5628400:26:20 01:46:24 
3593943MRich SchellhammerLynnfield MA 26700:16:2124500:03:0234700:54:2829500:01:2646700:31:16 01:46:31 
36060923FBrittany BoyerDanville VA 31500:16:5151400:05:0137100:55:1841100:01:4934200:27:35 01:46:32 
36116028FLaura DavisArlington VA 34800:17:3313400:02:2741800:57:1613800:01:0437700:28:18 01:46:36 
36220835FJennifer RobbArlington VA 47500:20:3538100:03:4635200:54:3533000:01:3229400:26:31 01:46:58 
36333019MAlex GenuarioMount Airy MD 48200:20:4747200:04:3249601:00:4215500:01:071600:20:03 01:47:09 
36448641FKristin DohertyWinchester VA 15700:14:4146500:04:2642700:57:3331100:01:2841200:29:03 01:47:09 
36567543MDavid DavisSterling VA 52100:22:5453800:05:3530900:53:0814300:01:0518600:24:30 01:47:10 
36655031FKristen GroseColumbia MD 30800:16:4251200:05:0034000:54:0657100:03:4035100:27:45 01:47:10 
3675134FEmily CarterVienna VA 43100:19:2120300:02:4745400:58:5542900:01:5317300:24:18 01:47:12 
3687838MWilliam LaingBristow VA 53700:24:0240300:04:0034200:54:1023600:01:1914200:23:45 01:47:14 
36925446FAnn McDermottPotomac MD 25200:16:1242000:04:0434900:54:3148400:02:1144300:30:22 01:47:19 
37064133FTricia BirdsellLorton VA 13400:14:1441500:04:0248501:00:1625700:01:2135800:27:54 01:47:45 
3717944FHeather SkinnerKensington MD 33100:17:1031500:03:2741600:57:0621200:01:1540400:28:53 01:47:49 
PlaceBibAgSNAMEcity/stateDQRankSWIMRankT1RankBikeRankT2RankRUNPENALTYTIMEDQ
37265938FJeanette WagnerCentreville VA 56400:28:291300:01:358000:46:212400:00:4445500:30:49 01:47:56 
37323232MMatthew OwenAlexandria VA 45500:19:5850300:04:5337900:55:2829000:01:2428200:26:17 01:47:58 
37427828MBen TurnerWashington DC 29400:16:3352700:05:1447200:59:4746400:02:0318800:24:30 01:48:05 
3758443FLisa HarfootAlexandria VA 34700:17:3226300:03:0644400:58:2526600:01:2135300:27:46 01:48:08 
37618667MRick RiceBurke VA 41900:19:1045500:04:2435400:54:4024600:01:2039300:28:41 01:48:12 
37729950MBruce CormackArlington VA 5700:12:5647500:04:3337400:55:2132200:01:3051300:33:56 01:48:14 
37858218FAbby BashamDumfries VA 6300:13:0511100:02:2349101:00:304600:00:5247500:31:39 01:48:27 
37930131FCaroline MahGaithersburg MD 31400:16:5117300:02:3941000:56:4445400:02:0044000:30:21 01:48:33 
3804328FAshley SparkmanArlington VA 42100:19:1328900:03:1643000:57:4437000:01:3930100:26:47 01:48:38 
38111238FJanet ChowAshburn VA 50200:21:3934200:03:3537500:55:2334800:01:3529500:26:33 01:48:43 
38219151MDavid NatoliArlington VA            01:48:46 
38337931FKatie HigginbothomArlington VA 46200:20:0528700:03:1641100:56:5730500:01:2731200:27:04 01:48:46 
38448730FMary DillonChesapeake VA 40200:18:4757100:06:4332600:53:3443100:01:5436600:28:00 01:48:55 
38535735MChristopher DailyGainesville VA 37600:18:1249800:04:4641700:57:0937700:01:4132000:27:11 01:48:57 
38619255FJoni BrigantiSpotsylvania VA 19500:15:1949200:04:4231700:53:2245000:01:5950900:33:40 01:49:01 
38712738MVladislav GavriletsFairfax VA 31200:16:4942200:04:0543100:57:4450600:02:2537900:28:22 01:49:23 
38819947MMark NorrisMcLean VA 42600:19:1750800:04:5732800:53:3956300:03:2137500:28:16 01:49:27 
38953133FJulie GreenAlexandria VA 44600:19:4227800:03:1440900:56:4218300:01:1039400:28:43 01:49:30 
39048051FKristina AmentAlexandria VA 38900:18:2743000:04:1040300:56:3050000:02:2137300:28:14 01:49:40 
39168831MTravis MestBristow VA 47700:20:4044400:04:1832500:53:3245900:02:0241500:29:10 01:49:40 
39239259FMaggie BartlettBoyds MD 27800:16:2935700:03:4038800:55:4242100:01:5148200:32:01 01:49:42 
39332130FJessica FrazierAshburn VA 47300:20:3240000:03:5838000:55:2950100:02:2233200:27:24 01:49:43 
39455425FRachel GottfriedArlington VA 38000:18:1639800:03:5737300:55:2055600:03:1441100:29:00 01:49:46 
39559330FJessika BriggsVirginia Beach VA 26100:16:1723400:02:5945200:58:4047300:02:0642700:29:46 01:49:46 
39611849MDonald CronceFredericksburg VA 53400:23:5741600:04:0331000:53:097900:00:5735200:27:46 01:49:49 
39767745MJeff NotzManassas VA 27900:16:2935500:03:4045100:58:3928300:01:2342500:29:43 01:49:52 
39838066FRuth HamiltonMcLean VA 41700:19:0420200:02:4738700:55:4231900:01:2945900:30:55 01:49:55 
39941958FCarol BrooksReston VA 40900:18:5445800:04:2533200:53:4847400:02:0745600:30:49 01:50:00 
40017044FNina CronDpo XX 38200:18:1946600:04:2726900:51:5952200:02:3949500:32:43 01:50:06 
40171148MNicolas NouvelSpringfield VA 9800:13:41700:01:2237700:55:283500:00:4956100:38:50 01:50:07 
40231244FKatrina KoomeyArlington VA 41000:18:5537300:03:4536400:55:0551800:02:3543000:29:53 01:50:10 
PlaceBibAgSNAMEcity/stateDQRankSWIMRankT1RankBikeRankT2RankRUNPENALTYTIMEDQ
40342043FKelly VelasquezSilver Spring MD 11200:13:5955700:06:1333800:54:0356200:03:2149600:32:44 01:50:17 
40455749FJeannie LabellaBristow VA 41600:19:0339000:03:5040400:56:3142700:01:5241300:29:05 01:50:18 
40524535FJanis BowdlerWashington DC 35500:17:3751500:05:0147300:59:4841400:01:5027900:26:15 01:50:29 
4068831FChristy WahleArlington VA 40300:18:5041000:04:0146000:59:1831500:01:2830800:26:57 01:50:32 
40733234FBecky BaltesSilver Spring MD 40700:18:5227300:03:1244300:58:2048700:02:1436100:27:57 01:50:33 
40827624FJessica DalyWashington DC 54200:24:4031800:03:2736600:55:0640500:01:4824700:25:34 01:50:33 
40921630FKathryn HumphreyCentreville VA 42400:19:1525200:03:0438500:55:4029200:01:2546600:31:13 01:50:35 
4108263MRaymond KannapellCharlottesville VA 28000:16:29         01:50:50 
41114736MBen GlonSpringfield VA 47600:20:3737700:03:4645000:58:3633300:01:3329000:26:26 01:50:56 
41252430FNewsha Nazmi AnsaryLeesburg VA 52300:23:0444600:04:1929200:52:4644300:01:5740200:28:51 01:50:56 
41366250FMargaret WrightAlexandria VA 46400:20:0932500:03:3230400:53:0440800:01:4944800:30:3600:02:0001:51:07 
41446332FHolly PeartAlexandria VA 39500:18:3632100:03:3042400:57:2841800:01:5042900:29:51 01:51:14 
41543432MJosh Soiz  51500:22:4352800:05:1437800:55:2841200:01:4927000:26:02 01:51:14 
41656949FMary WagnerVirginia Beach VA 50000:21:2929600:03:2039200:55:5953600:02:5434400:27:37 01:51:18 
41728447MJohn HannanGermantown MD 37000:18:0748900:04:4036300:55:0253300:02:5145200:30:47 01:51:25 
41854232MAndrew ChurchWashington DC 57700:31:1831700:03:2725600:51:1514700:01:0518100:24:22 01:51:26 
4193528MPaul HoweWashington DC 45100:19:5253100:05:1630100:53:0253100:02:4945000:30:38 01:51:34 
42047231FJennifer SmithRockville MD 33500:17:1842300:04:0543600:58:0254600:03:0441600:29:14 01:51:41 
42144022FJulie VetalManassas VA 32300:16:5727400:03:1353001:04:2039000:01:4524500:25:29 01:51:42 
42237137MMike NewtonHollywood MD 24800:16:0527700:03:1440800:56:4017300:01:1052600:34:37 01:51:43 
42345126FErika SchwartzWashington DC 35000:17:35         01:51:48 
42457725FAlexis LevinsonWashington DC 42300:19:1534600:03:3645500:59:0449000:02:1634600:27:40 01:51:49 
42545026FChristine BorgesWashington DC 40800:18:5345200:04:2247700:59:5452600:02:4426700:25:59 01:51:49 
42661741MTimothy O'ConnellKensington MD 40600:18:5233900:03:3524800:50:4816200:01:0855200:37:35 01:51:55 
42736846FSharon Westfall-LoomisNewport News VA 39600:18:3746700:04:2849401:00:3547600:02:0727700:26:13 01:51:58 
4288944FLisa FolbCentreville VA 41200:18:5637400:03:4548101:00:0736500:01:3734500:27:38 01:52:02 
42956551MKevin GeorgeHuntingtown MD 54700:25:0230500:03:2331900:53:2530300:01:2740000:28:49 01:52:03 
43046640FKerensa HadleyFairfax VA 31000:16:4714100:02:2947801:00:0232600:01:3146900:31:17 01:52:04 
4319438MDion DavitianFairfax VA 53900:24:17100:00:0039900:56:1743700:01:5542200:29:36 01:52:04 
43269229FKaitlin ShineAlexandria VA 34100:17:2653000:05:1543300:57:5456400:03:2537000:28:06 01:52:05 
43321237FMegan GonzalesVirginia Beach VA 32200:16:5731000:03:2539000:55:4733800:01:3352300:34:27 01:52:08 
PlaceBibAgSNAMEcity/stateDQRankSWIMRankT1RankBikeRankT2RankRUNPENALTYTIMEDQ
43464531MTodd BootheChandler AZ 29300:16:3251600:05:0150501:01:2448200:02:1131100:27:02 01:52:09 
4355752MDave MiddletonAshburn VA 45800:20:0249400:04:4540200:56:2751700:02:3438400:28:28 01:52:14 
43611060MRichard TobinSanta Barbara CA 51200:22:3238200:03:4640000:56:2437300:01:4035700:27:54 01:52:14 
43722444FEmily HarrisonGlen Allen VA 40100:18:4335900:03:4144800:58:3124500:01:2043400:30:04 01:52:16 
43820759FCarol GruenburgAlexandria VA 33300:17:1753400:05:2547500:59:5046800:02:0435500:27:49 01:52:23 
4394628FBrittany HedgesWashington DC 25700:16:1542700:04:0846200:59:2245700:02:0139600:28:4500:02:0001:52:30 
44026257FMelinda ScraffordClifton VA 47000:20:2848500:04:3934800:54:3050900:02:2744900:30:37 01:52:39 
44123120FMarika EmanuelCentreville VA 5400:12:5025400:03:0552901:04:0910500:01:0047700:31:40 01:52:41 
44243947FMeg ForemanFalls Church VA 42000:19:1226400:03:0642000:57:2143600:01:5546300:31:09 01:52:41 
44362532MJb RossonHarrisonburg VA 51600:22:4628100:03:1527800:52:0923100:01:1850300:33:17 01:52:43 
44434345MDan GoldfarbBurke VA 9500:13:3954600:05:4643700:58:0454900:03:0649100:32:29 01:53:01 
44551450FJulia KadisonWashington DC 45700:20:0056200:06:2444200:58:1817600:01:1032300:27:12 01:53:01 
44639136FKatherine LindlerPoquoson VA 37400:18:1037900:03:4646600:59:3229300:01:2644500:30:34 01:53:24 
44739656MDavid RoederHyattsville MD            01:53:25 
44855960MJr WoolleyWoodbridge VA 44200:19:3655600:06:1239600:56:0755300:03:1038000:28:24 01:53:27 
44958354MTerry BashamDumfries VA 27100:16:2410000:02:2048701:00:1833400:01:3346000:30:5500:02:0001:53:28 
45068028MJonathan HatleeArlington VA 35700:17:4144200:04:1850001:01:0644600:01:5838300:28:28 01:53:28 
4512744MRobert MillerChester VA 49000:21:0947300:04:3229100:52:3745800:02:0150200:33:15 01:53:33 
45216637FKatherine SkellyLeesburg VA 36500:18:0433800:03:3540100:56:2431400:01:2852100:34:23 01:53:52 
45361255MRichard DumeneBarboursville VA 37900:18:1351300:05:0125900:51:3052800:02:4553700:36:27 01:53:55 
45471239MMichael VasquezArlington VA 29600:16:351200:01:3348901:00:20900:00:3952800:34:54 01:53:59 
45561632FAddie SchroederArlington VA 53100:23:3846000:04:2536100:54:5851300:02:3138700:28:29 01:53:59 
45661854MDwight WolfNewport News VA 51900:22:5020600:02:4930000:53:0223000:01:1851700:34:11 01:54:08 
45718333MJoseph PerezWashington DC 54600:24:5339300:03:5045800:59:143300:00:4824300:25:25 01:54:09 
45856851MRandy FinkHuntingtown MD 17900:15:0353300:05:2341900:57:1749100:02:1637600:28:1700:06:0001:54:14 
45966731FKate VaskoArlington VA 23100:15:4922100:02:5444900:58:3518700:01:1153400:36:02 01:54:30 
46039344MPhil PalmisanoMartinsburg WV 49900:21:2747100:04:3139700:56:1435200:01:3545300:30:48 01:54:32 
46149828MDouglas ForbesCockeysville MD 39200:18:3556400:06:2641500:57:0445600:02:0146200:31:02 01:55:06 
46270922MCasey CagleFork Union VA 43400:19:242400:01:4551701:02:331300:00:3945400:30:48 01:55:08 
46357946MBurton MasonStafford VA 46100:20:0450900:04:5743500:58:0034400:01:3444600:30:35 01:55:08 
4646849MAndrew BaillieNokesville VA 55100:25:5142800:04:0838400:55:3428900:01:2438600:28:28 01:55:23 
PlaceBibAgSNAMEcity/stateDQRankSWIMRankT1RankBikeRankT2RankRUNPENALTYTIMEDQ
46549149FKaren SantosBristow VA 49500:21:1651900:05:0542600:57:3053900:02:5939100:28:38 01:55:25 
4669950MDaniel BragunierPort Tobacco MD 51800:22:4949500:04:4542900:57:3750700:02:2636000:27:56 01:55:31 
4674232FJennifer MasonArlington VA 33600:17:1941100:04:0150401:01:2348900:02:1446500:31:10 01:56:06 
46870026FTiyisha ButlerAlexandria VA 52500:23:0943800:04:1646800:59:3820200:01:1436200:27:57 01:56:12 
46928745FBel SerockiArlington VA 43700:19:2721700:02:5346500:59:3139500:01:4549700:32:52 01:56:26 
47021035MLuis-Ernesto ClavijoAlexandria VA 55800:27:2752000:05:0535000:54:3251600:02:3321500:24:5900:02:0001:56:35 
47144246FTeresa MorrisLakewood CO 47900:20:4246800:04:2936700:55:0954200:03:0150400:33:17 01:56:35 
47225139FMarcie CookWashington DC 42900:19:2044800:04:2046700:59:3355100:03:0943900:30:20 01:56:39 
47338347MDavid SimmsArlington VA 52600:23:2045300:04:2238300:55:3139700:01:4648500:32:05 01:57:02 
47447735FMarjorie HuntArlington VA 46900:20:2546400:04:2639100:55:4848500:02:1252500:34:31 01:57:20 
47518856FMary FosterLaytonsville MD 44000:19:3450200:04:5041400:57:0254400:03:0249800:32:59 01:57:25 
47671447FNemo (Helen) BrauchNags Head NC 27500:16:2729500:03:2025500:51:1337100:01:4058000:45:01 01:57:39 
47740337MCraig HirokawaFredericksburg VA 57400:30:1351700:05:0340600:56:3522700:01:1819100:24:33 01:57:40 
47818957MPaul FosterLaytonsville MD 56800:29:2739700:03:5533100:53:4449700:02:1938100:28:26 01:57:50 
47930229FLindsey BrooksLeesburg VA 52400:23:0544300:04:1844700:58:3047200:02:0543200:29:54 01:57:51 
48059726MBrendan MarkhamArlington VA 48300:20:5448200:04:3741300:57:0249300:02:1750600:33:19 01:58:06 
48147431FRebecca PurseStafford VA 50100:21:3540200:04:0045700:59:0839200:01:4548100:31:56 01:58:21 
48210048FDiana BragunierPort Tobacco MD 46800:20:2334500:03:3650201:01:1344800:01:5947000:31:23 01:58:33 
48340134FJulie HirokawaFredericksburg VA 54300:24:4347900:04:3450101:01:116400:00:5432400:27:14 01:58:35 
4843026FPerrin ScanlonFairfax St. VA 37500:18:1047400:04:3252201:03:3323900:01:1947100:31:25 01:58:57 
48554944MChris GreenColumbia MD 53200:23:4547700:04:3437000:55:1743500:01:5550800:33:34 01:59:02 
48626435FDebbie PedersonAlexandria VA 18400:15:0535000:03:3849701:00:4536000:01:3755600:38:08 01:59:11 
4871245FLeslie Fitzgerald DollAlexandria VA 49200:21:1141200:04:0143200:57:5440400:01:4852200:34:25 01:59:18 
48867131MDaniel HuntleyFredericksburg VA 39700:18:4050600:04:5548001:00:0457300:03:5648000:31:50 01:59:22 
48966349FKris PetersenSilver Spring MD 27200:16:2738500:03:4844000:58:1522800:01:1856600:39:41 01:59:27 
49039045FBonnie McCreadyArlington VA 44700:19:4354400:05:4349301:00:3538700:01:4447900:31:48 01:59:31 
49146752FDiana WilcoxLorton VA 53500:23:5823200:02:5943400:57:5615600:01:0751500:33:57 01:59:54 
49231730FGwen GallagherClifton VA 50800:22:0647800:04:3450701:01:4426100:01:2143600:30:13 01:59:55 
49319345MMatt WoodmanManassas VA 54500:24:5049700:04:4650901:01:4717500:01:1033500:27:28 02:00:00 
49438233MRandolph FeltnerColonial Beach VA 56700:29:2347600:04:3326800:51:5337600:01:4049400:32:38 02:00:07 
49560468FCarolyn RiceBurke VA 56100:28:0443600:04:1538200:55:3052100:02:3943100:29:54 02:00:20 
PlaceBibAgSNAMEcity/stateDQRankSWIMRankT1RankBikeRankT2RankRUNPENALTYTIMEDQ
49623426FElyse PertotAlexandria VA 48800:21:0839600:03:5453101:04:2336300:01:3741900:29:23 02:00:23 
4978351FElisa ColeHaymarket VA 52000:22:5038800:03:4946900:59:4141600:01:5049000:32:28 02:00:36 
4987352MGlenn LawArlington VA 51100:22:32200:00:0051901:02:5953400:02:5248800:32:22 02:00:44 
49921326FAmy GreenbergRockville MD 28300:16:2921400:02:5255001:08:0544400:01:5747200:31:28 02:00:49 
50067632MMatt NovarrWashington DC 54000:24:2648100:04:3548401:00:1545200:01:5943300:29:59 02:01:14 
50126862MAlonzo CrittendenHampton VA 45200:19:5342100:04:0433000:53:4254700:03:0557000:40:50 02:01:31 
50271335MKevin TakeguchiArlington VA 33000:17:0954900:05:5046300:59:264800:00:5355800:38:21 02:01:36 
50355644MBill McNultyVienna VA 42700:19:1855400:06:0653201:04:2331700:01:2944400:30:29 02:01:42 
50468637MKevin BlumenthalWashington DC 46700:20:2155000:05:5044500:58:2857500:04:0750100:33:03 02:01:48 
50524333FShannon CooperLocust Grove VA 23900:15:5529100:03:1853401:04:4021500:01:1654200:36:48 02:01:54 
50615628FDanielle VaccaArlington VA 17300:15:0150500:04:5552601:03:5912000:01:0254700:37:28 02:02:23 
50727958FMargery TurnerTemple Hills MD 48500:21:0051800:05:0548301:00:1151100:02:3051000:33:47 02:02:30 
50842231MThomas SpragueFalls Church VA 48600:21:0649100:04:4253601:04:4816100:01:0845700:30:49 02:02:31 
50960149MMiro LehkyCentreville VA 48100:20:4636100:03:4151801:02:4443300:01:5451100:33:50 02:02:53 
51023331FErica Decker-GarnseyAshburn VA 54100:24:4053500:05:2652301:03:3653200:02:5029800:26:42 02:03:12 
51111966FKari SprecherLeesburg VA 51700:22:4939500:03:5242200:57:2440900:01:4954500:37:23 02:03:14 
5122945MRobert O'BraitisAshburn VA 44800:19:4944100:04:1752401:03:4227500:01:2352000:34:14 02:03:23 
51369637FErin McManamonArlington VA 52900:23:2847000:04:3047901:00:0350300:02:2549900:33:00 02:03:24 
5147634MDaniel WilliamsLeesburg VA 38400:18:2056800:06:3652501:03:4515200:01:0651200:33:50 02:03:37 
51513772MSkip HartquistWashington DC 48900:21:0854300:05:4251201:02:0133600:01:3350700:33:23 02:03:46 
5168044FSusanne YoungAlexandria VA 54900:25:3834700:03:3653301:04:3718200:01:1040100:28:50 02:03:50 
51744915FCasey KendallOak Hill VA 43600:19:2629000:03:1756101:11:0639800:01:4637800:28:18 02:03:52 
51865751FSimone RebaSpringfield VA 34600:17:3238000:03:4653501:04:4641300:01:5053300:36:00 02:03:52 
51925858MJay WilkinsSpotsylvania VA 51300:22:33      46400:31:09 02:03:56 
52051653MEdwin Wright Jr.Montclair VA 47400:20:3348300:04:3848801:00:1854000:02:5953200:35:37 02:04:04 
5215353FWendy ChristoffersonAlexandria VA 55500:26:4740600:04:0051001:02:0033200:01:3342800:29:48 02:04:06 
52259230MMauricio RamirezAlexandria VA 56500:29:1736000:03:4149201:00:3341900:01:5040300:28:52 02:04:12 
52370734FGretchen Forbes/SoirezParkton MD 57600:31:029900:02:1951101:02:0115700:01:0736500:27:59 02:04:25 
52438434FAngela BarkanSavage MD 47200:20:3057000:06:3952801:04:0641000:01:4948300:32:03 02:05:05 
52533339FKaren TaggartWashington DC 45400:19:5651100:05:0046400:59:3054100:03:0055300:37:45 02:05:09 
52661438FErica PennWinchester VA 48400:20:5636800:03:4453801:05:1921400:01:1651400:33:57 02:05:10 
PlaceBibAgSNAMEcity/stateDQRankSWIMRankT1RankBikeRankT2RankRUNPENALTYTIMEDQ
52713533FAlison EddyArlington VA 42200:19:1452600:05:0949901:00:5449200:02:1655400:37:51 02:05:23 
52826957MMichael HillFairfax VA 55400:26:3654500:05:4446100:59:1853500:02:5246100:31:01 02:05:29 
52962739MBert CordermanFairfax VA 44900:19:5056100:06:2247100:59:4654500:03:0353800:36:33 02:05:32 
53033431FJennierose D'EliaGaithersburg MD 45900:20:0346100:04:2551501:02:1656600:03:2753600:36:16 02:06:26 
5316034FColleen StacyLaurel MD 34300:17:2855500:06:1048601:00:1655500:03:1256400:39:24 02:06:28 
53229552FSara WattGaithersburg MD 49400:21:1255200:06:0152101:03:2556900:03:3648900:32:23 02:06:34 
53356758FDeb WolfeCentreville VA 57100:30:1048800:04:4042100:57:2350200:02:2348400:32:05 02:06:39 
53426316FAnnabelle LeahyBethesda MD 25500:16:1329200:03:1855601:10:036300:00:5453500:36:16 02:06:43 
53570154FSharon GriffingSpringfield VA 57000:30:0252200:05:0653901:05:2047100:02:0521000:24:51 02:07:22 
53633532MNathan KazaitisWashington DC 56200:28:0857600:07:0038600:55:4158000:04:2749200:32:29 02:07:44 
53762631MTimothy ErdahlGainesville VA 53800:24:15300:00:0051401:02:0657400:03:5755100:37:32 02:07:48 
53832533FHeather AndersonAshburn VA 50700:21:5845000:04:2150601:01:3454800:03:0654300:37:05 02:08:02 
5393639MJoseph WestmorelandCentreville VA 29500:16:3455800:06:1549501:00:3856800:03:3457200:41:36 02:08:35 
54013831MJohn BigatelRockville MD 55600:26:5449300:04:4450801:01:4514200:01:0551900:34:14 02:08:39 
54147651MJoe CroghanHerndon VA 51400:22:3558200:08:1951601:02:1857200:03:5447400:31:38 02:08:42 
54269129MJonathan CetranoWashington DC 53600:24:0149600:04:4547000:59:4339100:01:4556300:39:10 02:09:22 
54368127MNicholas GouldWashington, Dc DC            02:09:23 
5448764MBill WaltonWashington VA 50300:21:4457300:06:4547400:59:4856500:03:2655500:37:52 02:09:33 
54570656MCliff HamalVienna VA 19800:15:213500:01:5158101:26:329900:01:0024800:25:36 02:10:17 
54623627MChris BlankenshipWashington DC 56300:28:1053900:05:3547600:59:5342500:01:5252700:34:50 02:10:18 
54766549FMichelle WalzVirginia Beach VA 43500:19:2634400:03:3653701:05:1747900:02:0956900:40:09 02:10:35 
5487556FKaren LehSterling VA 30200:16:4049000:04:4155201:08:4045100:01:5956000:38:43 02:10:42 
54931016FJessica RogersSpringfield VA 55300:26:21400:00:0057601:20:4050500:02:254700:21:29 02:10:54 
55023935MKerry OldfieldLeesburg VA 57500:30:4057800:07:2249001:00:2849600:02:1844700:30:35 02:11:21 
55137770MBill GoodingMontclair VA            02:12:10 
55230831FKatherine RyanWashington DC 42800:19:2054000:05:3656201:11:2246600:02:0452400:34:27 02:12:47 
55369437FA. D.Arlington VA 40000:18:4357500:07:0055801:10:5858100:04:5447300:31:32 02:13:05 
55432351MGary HartmannGermantown MD 5100:12:4558000:07:4155301:09:3057800:04:1356200:39:07 02:13:14 
55566627FMelissa WoolleyArlington VA 34900:17:3345700:04:2554801:07:4948600:02:1357100:41:26 02:13:25 
55628530FMelissa GallagherBurke VA 51000:22:2548700:04:4054501:07:0224300:01:1955700:38:14 02:13:38 
55769549FMargaret KrickFredericksburg VA 43900:19:3336600:03:4354001:05:3343800:01:5557400:43:04 02:13:46 
PlaceBibAgSNAMEcity/stateDQRankSWIMRankT1RankBikeRankT2RankRUNPENALTYTIMEDQ
55854735FSarah MenonArlington VA 56000:28:0055300:06:0654101:05:4847000:02:0548700:32:08 02:14:05 
5592253FPenny MurrellArlington VA 55000:25:5054800:05:4954901:08:0149500:02:1749300:32:29 02:14:25 
560735FJennifer RuckerRockville MD 56600:29:2042600:04:0854601:07:4647800:02:0948600:32:08 02:15:29 
56144355FLiz SalakFalls Church VA 57300:30:1256500:06:3051301:02:0252400:02:4151800:34:11 02:15:35 
56265833FHolly WytkoElkridge MD 52700:23:2345400:04:2256301:11:4343400:01:5553000:35:15 02:16:36 
56370353FTina LanceSpotsylvania VA 53300:23:50900:01:2554201:06:02100:00:2857900:44:54 02:16:37 
56468436MKevin BradleyFairfax VA 58400:34:4935200:03:3852701:04:0318800:01:1250000:33:01 02:16:41 
56551755FDorothy WrightMontclair VA 58000:32:2756700:06:3355101:08:2151400:02:3243700:30:14 02:20:05 
56649533FShay AnkarBealeton VA 43000:19:2050400:04:5357201:15:4913600:01:0456700:39:55 02:20:59 
56721820FAmy SkajaYorktown VA 50400:21:4553700:05:3356501:14:2943200:01:5455000:37:32 02:21:11 
56850941MPeyam MojallalAshburn VA 58800:40:3154700:05:4752001:03:1456700:03:3040800:28:58 02:21:58 
56953742MTucker BallWashington DC 55200:26:1658400:10:1354401:06:2955200:03:1053900:36:34 02:22:40 
57026747FNadine UrbanReston VA 49600:21:1955900:06:1857301:16:1653800:02:5554000:36:41 02:23:27 
57121753MJoe SkajaYorktown VA 48700:21:0658300:09:1256601:14:3142800:01:5354900:37:31 02:24:11 
57235365FMarianna GoodingMontclair VA 58200:33:0156000:06:1854301:06:1842600:01:5254400:37:19 02:24:46 
57370453FMary CraigCharlottesville VA 53000:23:3553200:05:2257701:21:4118900:01:1250500:33:18 02:25:05 
57435137FSusan KuselArlington VA 54800:25:1650000:04:4857001:15:3633500:01:3355900:38:23 02:25:34 
57526153FJody BenitzAlexandria VA 57900:32:2156600:06:3254701:07:4757700:04:0852900:35:03 02:25:49 
57669738FLesley EicherHarrisonburg VA 24400:16:0257700:07:2057101:15:4155400:03:1257600:43:38 02:25:52 
57749732FWendy ForbesBaltimore MD 57200:30:1254100:05:3755701:10:4652900:02:4754100:36:44 02:26:05 
57832627FStephanie OsborneAlexandria VA 55900:27:3252300:05:0856401:13:1355000:03:0854600:37:28 02:26:26 
57927244FJanice AucellaAlexandria VA 46500:20:1057900:07:3856901:15:3055700:03:1557500:43:25 02:29:57 
58063556MWilliam TheobaldWashington DC 57800:31:2852100:05:0655501:09:4052700:02:4458100:45:52 02:34:48 
58124033MScott GrossmanChicago IL 52200:23:0058500:21:4955901:11:0040300:01:4854800:37:30 02:35:05 
58266831FAngela HallZelienople PA 56900:29:4636400:03:4255401:09:3453700:02:5558300:50:54 02:36:49 
58332231FKristen WillardSpringfield VA 58500:39:0056300:06:2556801:15:1457600:04:0753100:35:30 02:40:15 
58410225FMaica MosqueraVirginia Beach VA 58900:40:4228000:03:1556701:14:5532700:01:3257300:41:37 02:42:00 
58566944FKimberley BushAlexandria VA 55700:27:2055100:06:0057401:18:0657900:04:2058200:46:18 02:42:02 
58622831FErin SmithWilliamsburg VA 58100:32:3554200:05:4158001:24:2051500:02:3356800:39:59 02:45:06 
58727527FOya WhiteAlexandria VA 16000:14:4253600:05:2656001:11:0256100:03:1958401:15:11 02:49:39 
58816740MThao NguyenWoodbridge VA 59000:44:1952900:05:1557501:19:2521800:01:1656500:39:32 02:49:44 
PlaceBibAgSNAMEcity/stateDQRankSWIMRankT1RankBikeRankT2RankRUNPENALTYTIMEDQ
58930544FMarie HasslerKing George VA 58300:34:4757400:06:5457801:22:3635600:01:3657800:44:18 02:50:09 
5904863FMargaret BatkoAlexandria VA 54400:24:4758100:07:4258201:35:5649400:02:1757700:43:40 02:54:21 
59169943FTerese SmithSpringfield VA 58700:39:3857200:06:4457901:23:33     03:01:53 

** Results are for the private use of participants and are the Intellectual Property of Set Up Events. Unauthorized use of these results is prohibited.